Time;durP1;ratioP1;P1;durP2;ratioP2;P2;SDS_P1;SDS_P2;PMS_P1;PMS_P2;Temp;Humidity;BMP_temperature;BMP_pressure;BME280_temperature;BME280_humidity;BME280_pressure;Samples;Min_cycle;Max_cycle;Signal;HPM_P1;HPM_P2
2021/12/15 00:01:03;;;;;;;6.30;5.60;;;;;;;4.72;100.00;97987.28;5053625;28;21016;-73
2021/12/15 00:03:30;;;;;;;6.73;5.03;;;;;;;4.77;100.00;97989.94;5055077;28;20417;-73
2021/12/15 00:05:58;;;;;;;7.23;5.47;;;;;;;4.64;100.00;97972.78;5054942;28;20433;-73
2021/12/15 00:08:25;;;;;;;6.93;6.23;;;;;;;4.79;100.00;97987.06;5070087;28;20437;-73
2021/12/15 00:10:52;;;;;;;6.40;4.87;;;;;;;4.60;100.00;97974.31;5053416;28;21258;-73
2021/12/15 00:13:20;;;;;;;9.53;5.47;;;;;;;4.72;100.00;97993.31;5054169;28;20460;-73
2021/12/15 00:15:48;;;;;;;6.23;4.90;;;;;;;4.58;100.00;97970.38;5052872;28;20437;-75
2021/12/15 00:18:15;;;;;;;7.40;5.30;;;;;;;4.70;100.00;97987.53;5052818;28;20802;-73
2021/12/15 00:20:43;;;;;;;7.17;5.70;;;;;;;4.65;100.00;97987.47;5052697;28;20444;-73
2021/12/15 00:23:10;;;;;;;5.83;5.33;;;;;;;4.71;100.00;97991.72;5069374;28;20983;-73
2021/12/15 00:25:41;;;;;;;7.13;5.30;;;;;;;4.69;100.00;97993.00;5036160;28;20494;-73
2021/12/15 00:28:08;;;;;;;7.10;5.73;;;;;;;4.69;100.00;97988.56;5053962;28;20543;-73
2021/12/15 00:30:37;;;;;;;6.60;4.50;;;;;;;4.64;100.00;97972.00;5053887;28;20433;-73
2021/12/15 00:33:06;;;;;;;6.53;4.97;;;;;;;4.57;100.00;97974.03;5053775;28;20563;-73
2021/12/15 00:35:35;;;;;;;6.60;5.87;;;;;;;4.60;100.00;97986.63;5052478;28;20559;-73
2021/12/15 00:38:05;;;;;;;5.63;4.90;;;;;;;4.59;100.00;97964.88;5035782;28;20838;-73
2021/12/15 00:40:32;;;;;;;5.67;4.37;;;;;;;4.60;100.00;97969.06;5052340;28;20452;-73
2021/12/15 00:42:59;;;;;;;7.60;5.60;;;;;;;4.56;100.00;97969.81;5052384;28;20445;-73
2021/12/15 00:45:26;;;;;;;6.30;5.60;;;;;;;4.59;100.00;97964.88;5053674;28;20797;-73
2021/12/15 00:47:54;;;;;;;5.73;4.60;;;;;;;4.56;100.00;97967.22;5053400;28;20449;-73
2021/12/15 00:50:25;;;;;;;10.17;5.70;;;;;;;4.60;100.00;97971.69;5052080;28;20886;-73
2021/12/15 00:52:52;;;;;;;6.83;5.57;;;;;;;4.52;100.00;97961.66;5051938;28;21012;-73
2021/12/15 00:55:22;;;;;;;6.83;5.60;;;;;;;4.59;100.00;97972.75;5051325;28;20435;-73
2021/12/15 00:57:50;;;;;;;6.20;5.60;;;;;;;4.61;100.00;97975.91;5053416;28;20456;-73
2021/12/15 01:00:22;;;;;;;5.93;5.40;;;;;;;4.63;100.00;97968.56;5068732;28;20854;-73
2021/12/15 01:02:49;;;;;;;8.00;5.23;;;;;;;4.50;100.00;97966.34;5053372;28;20495;-74
2021/12/15 01:05:19;;;;;;;7.87;5.10;;;;;;;4.54;100.00;97966.63;5053528;28;20528;-74
2021/12/15 01:07:47;;;;;;;7.07;5.67;;;;;;;4.67;100.00;97976.72;5053023;28;20461;-74
2021/12/15 01:10:20;;;;;;;5.23;4.70;;;;;;;4.61;100.00;97964.63;5053217;28;20434;-74
2021/12/15 01:20:48;;;;;;;5.57;5.07;;;;;;;4.55;100.00;97961.19;5051645;28;20437;-74
2021/12/15 01:23:19;;;;;;;7.50;5.33;;;;;;;4.64;100.00;97974.59;5051455;28;20429;-74
2021/12/15 01:25:54;;;;;;;7.53;5.60;;;;;;;4.52;100.00;97958.25;5067962;28;20532;-74
2021/12/15 01:28:23;;;;;;;5.93;4.60;;;;;;;4.63;100.00;97979.06;5035163;28;20436;-73
2021/12/15 01:30:52;;;;;;;8.37;5.70;;;;;;;4.61;100.00;97973.28;5051339;28;20467;-74
2021/12/15 01:33:19;;;;;;;6.67;5.50;;;;;;;4.57;100.00;97971.41;5051423;28;20461;-74
2021/12/15 01:35:54;;;;;;;9.93;5.37;;;;;;;4.60;100.00;97982.19;5068029;28;21001;-74
2021/12/15 01:38:27;;;;;;;7.60;5.77;;;;;;;4.33;100.00;97968.25;5051536;28;20558;-74
2021/12/15 01:40:55;;;;;;;9.40;5.83;;;;;;;4.48;100.00;97972.88;5051244;28;20437;-74
2021/12/15 01:43:29;;;;;;;10.10;6.13;;;;;;;4.64;100.00;97993.72;5051354;28;20649;-74
2021/12/15 01:49:22;;;;;;;6.83;6.13;;;;;;;4.61;100.00;97996.84;5067899;28;20907;-74
2021/12/15 01:51:49;;;;;;;7.53;5.10;;;;;;;4.65;100.00;97992.69;5007106;28;20443;-74
2021/12/15 01:54:18;;;;;;;8.70;6.70;;;;;;;4.61;100.00;97991.63;5053676;28;20551;-74
2021/12/15 01:56:45;;;;;;;6.77;5.27;;;;;;;4.55;100.00;97978.72;5034934;28;20465;-74
2021/12/15 01:59:13;;;;;;;7.57;5.70;;;;;;;4.58;100.00;97999.19;5068254;28;20437;-74
2021/12/15 02:01:40;;;;;;;7.83;6.00;;;;;;;4.48;100.00;97981.53;5051121;28;21043;-74
2021/12/15 02:04:07;;;;;;;8.87;5.83;;;;;;;4.31;100.00;97949.41;5069685;28;20524;-74
2021/12/15 02:06:41;;;;;;;7.17;5.20;;;;;;;4.52;100.00;97989.66;5053251;28;20495;-73
2021/12/15 02:09:09;;;;;;;8.47;5.43;;;;;;;4.51;100.00;97985.47;5054191;28;20493;-74
2021/12/15 02:11:37;;;;;;;11.03;6.07;;;;;;;4.59;100.00;97979.81;5052073;28;20437;-74
2021/12/15 02:14:04;;;;;;;7.90;6.23;;;;;;;4.45;100.00;97974.16;5067274;28;20530;-74
2021/12/15 02:16:31;;;;;;;10.00;6.77;;;;;;;4.44;100.00;97993.53;5034265;28;20472;-74
2021/12/15 02:18:58;;;;;;;10.70;6.33;;;;;;;4.47;100.00;97994.88;5050867;28;20433;-74
2021/12/15 02:21:25;;;;;;;9.53;6.60;;;;;;;4.58;100.00;97986.88;5067200;28;20434;-74
2021/12/15 02:23:56;;;;;;;7.73;5.93;;;;;;;4.54;100.00;97991.03;5033843;28;20432;-74
2021/12/15 02:26:29;;;;;;;11.07;6.17;;;;;;;4.48;100.00;97976.28;5051726;28;20831;-74
2021/12/15 02:28:58;;;;;;;9.17;6.30;;;;;;;4.54;100.00;97991.03;5066951;28;20476;-74
2021/12/15 02:34:33;;;;;;;8.40;6.33;;;;;;;4.35;100.00;97998.41;5066831;28;20502;-74
2021/12/15 02:39:59;;;;;;;7.87;6.17;;;;;;;4.38;100.00;97997.13;5066806;28;20859;-74
2021/12/15 02:42:31;;;;;;;10.67;7.03;;;;;;;4.36;100.00;97978.25;5051404;28;20425;-74
2021/12/15 02:44:58;;;;;;;16.93;8.13;;;;;;;4.35;100.00;97987.13;5051383;28;20467;-74
2021/12/15 02:47:28;;;;;;;12.27;6.53;;;;;;;4.38;100.00;98008.38;5051285;28;21071;-74
2021/12/15 02:49:58;;;;;;;10.53;7.20;;;;;;;4.40;100.00;97989.81;5051309;28;20424;-74
2021/12/15 02:52:27;;;;;;;8.00;5.83;;;;;;;4.55;100.00;98008.31;5049937;28;20444;-74
2021/12/15 02:54:54;;;;;;;11.23;7.83;;;;;;;4.37;100.00;98000.78;5049777;28;20467;-73
2021/12/15 02:57:20;;;;;;;9.00;7.20;;;;;;;4.41;100.00;98009.75;5033295;28;20514;-74
2021/12/15 03:00:00;;;;;;;9.83;7.00;;;;;;;4.33;100.00;98010.16;5033437;28;20525;-74
2021/12/15 03:05:14;;;;;;;8.97;7.33;;;;;;;4.42;100.00;97995.59;5051207;28;20413;-74
2021/12/15 03:15:44;;;;;;;7.03;5.80;;;;;;;4.44;100.00;98007.41;5051163;28;20421;-73
2021/12/15 03:18:21;;;;;;;8.70;6.87;;;;;;;4.36;100.00;97993.94;5052572;28;20464;-73
2021/12/15 03:20:57;;;;;;;8.33;6.03;;;;;;;4.53;100.00;98009.59;5055169;28;20773;-74
2021/12/15 03:23:33;;;;;;;7.47;6.40;;;;;;;4.54;100.00;98001.50;5070559;28;20425;-74
2021/12/15 03:26:01;;;;;;;8.37;7.33;;;;;;;4.49;100.00;97998.03;5054044;28;20941;-73
2021/12/15 03:39:26;;;;;;;11.37;6.33;;;;;;;4.04;100.00;97999.88;5053524;28;20433;-74
2021/12/15 03:41:59;;;;;;;10.87;8.00;;;;;;;4.11;100.00;97991.81;5053466;28;20959;-73
2021/12/15 03:44:27;;;;;;;10.23;7.97;;;;;;;4.17;100.00;98011.00;5054758;28;20420;-73
2021/12/15 03:46:54;;;;;;;10.47;7.50;;;;;;;4.07;100.00;98006.44;5053588;28;20445;-74
2021/12/15 03:49:21;;;;;;;10.73;7.03;;;;;;;4.07;100.00;98014.28;5053552;28;20441;-73
2021/12/15 03:51:48;;;;;;;11.60;7.93;;;;;;;4.06;100.00;98026.56;5053146;28;20441;-74
2021/12/15 03:54:17;;;;;;;13.73;8.17;;;;;;;4.02;100.00;98022.88;5053374;28;20464;-73
2021/12/15 03:56:46;;;;;;;10.23;6.43;;;;;;;3.99;100.00;98020.72;5053229;28;20456;-74
2021/12/15 03:59:13;;;;;;;8.67;6.20;;;;;;;3.99;100.00;98020.72;5053133;28;20437;-73
2021/12/15 04:01:40;;;;;;;11.23;7.03;;;;;;;3.78;100.00;98014.44;5053240;28;20441;-73
2021/12/15 04:04:07;;;;;;;10.70;8.27;;;;;;;3.83;100.00;98018.94;5054398;28;20425;-74
2021/12/15 04:06:37;;;;;;;13.87;7.00;;;;;;;3.80;100.00;98012.34;5054356;28;20449;-74
2021/12/15 04:09:07;;;;;;;9.70;6.23;;;;;;;4.09;100.00;98023.47;5069523;28;20443;-74
2021/12/15 04:11:36;;;;;;;10.17;6.60;;;;;;;4.25;100.00;98028.91;5052980;28;20468;-73
2021/12/15 04:14:09;;;;;;;10.20;7.20;;;;;;;4.11;100.00;98029.25;5052637;28;20461;-74
2021/12/15 04:19:07;;;;;;;16.63;12.43;;;;;;;4.28;100.00;98038.91;5069388;28;21034;-73
2021/12/15 04:21:35;;;;;;;17.33;11.50;;;;;;;4.19;100.00;98049.00;5054063;28;20429;-74
2021/12/15 04:24:03;;;;;;;14.07;11.00;;;;;;;4.08;100.00;98034.19;5086247;28;20429;-72
2021/12/15 04:26:30;;;;;;;12.47;10.93;;;;;;;4.07;100.00;98040.47;5054471;28;20862;-72
2021/12/15 04:28:57;;;;;;;17.27;9.60;;;;;;;4.11;100.00;98049.41;5051676;28;20445;-72
2021/12/15 04:31:28;;;;;;;13.10;9.87;;;;;;;4.10;100.00;98043.38;5052489;28;20499;-72
2021/12/15 04:34:02;;;;;;;14.50;9.00;;;;;;;4.10;100.00;98051.22;5069038;28;21062;-71
2021/12/15 04:36:33;;;;;;;13.50;9.00;;;;;;;4.03;100.00;98026.28;5068803;28;20472;-71
2021/12/15 04:39:01;;;;;;;8.70;7.50;;;;;;;4.09;100.00;98047.03;5052331;28;20441;-72
2021/12/15 04:41:29;;;;;;;9.63;7.40;;;;;;;4.15;100.00;98053.94;5052765;28;21262;-72
2021/12/15 04:44:10;;;;;;;11.03;8.07;;;;;;;4.14;100.00;98057.59;5068998;28;21011;-72
2021/12/15 04:46:41;;;;;;;13.17;9.10;;;;;;;4.09;100.00;98057.50;5068775;28;20971;-72
2021/12/15 04:49:10;;;;;;;11.90;9.67;;;;;;;4.11;100.00;98052.81;5068718;28;20535;-71
2021/12/15 04:51:37;;;;;;;8.90;7.00;;;;;;;4.00;100.00;98032.75;5052473;28;20506;-72
2021/12/15 04:54:05;;;;;;;9.40;7.23;;;;;;;4.09;100.00;98062.72;5052184;28;20468;-71
2021/12/15 04:56:32;;;;;;;13.13;9.87;;;;;;;4.10;100.00;98064.31;5051999;28;20465;-71
2021/12/15 04:58:59;;;;;;;11.00;8.20;;;;;;;3.99;100.00;98051.31;5052075;28;20449;-71
2021/12/15 05:01:26;;;;;;;9.30;7.73;;;;;;;4.08;100.00;98060.34;5052112;28;20441;-72
2021/12/15 05:03:53;;;;;;;10.03;7.47;;;;;;;4.06;100.00;98067.66;5068506;28;20461;-72
2021/12/15 05:06:21;;;;;;;12.60;8.70;;;;;;;4.00;100.00;98047.66;5051806;28;20456;-72
2021/12/15 05:08:49;;;;;;;14.30;8.20;;;;;;;4.00;100.00;98064.16;5051886;28;20491;-72
2021/12/15 05:11:16;;;;;;;10.00;7.70;;;;;;;3.98;100.00;98070.69;5068447;28;20817;-71
2021/12/15 05:13:44;;;;;;;9.83;7.07;;;;;;;3.94;100.00;98064.34;5035099;28;20537;-72
2021/12/15 05:16:11;;;;;;;9.90;7.13;;;;;;;3.91;100.00;98060.38;5053016;28;20923;-72
2021/12/15 05:18:38;;;;;;;8.23;6.53;;;;;;;3.97;100.00;98079.56;5068385;28;20529;-72
2021/12/15 05:21:07;;;;;;;9.13;7.00;;;;;;;3.85;100.00;98067.34;5068485;28;20441;-72
2021/12/15 05:23:44;;;;;;;9.63;6.63;;;;;;;3.98;100.00;98086.38;5052406;28;20437;-72
2021/12/15 05:26:11;;;;;;;12.13;8.20;;;;;;;3.95;100.00;98090.28;5051490;28;20461;-72
2021/12/15 05:28:38;;;;;;;15.00;9.87;;;;;;;4.08;100.00;98069.00;5051666;28;20469;-72
2021/12/15 05:31:06;;;;;;;12.73;8.87;;;;;;;4.07;100.00;98064.81;5051406;28;21018;-73
2021/12/15 05:33:33;;;;;;;9.50;8.40;;;;;;;4.39;100.00;98092.97;5051537;28;20461;-72
2021/12/15 05:36:00;;;;;;;10.67;9.00;;;;;;;4.26;100.00;98093.31;5051313;28;20528;-72
2021/12/15 05:38:27;;;;;;;11.57;9.20;;;;;;;4.38;100.00;98099.22;5034760;28;20453;-72
2021/12/15 05:40:56;;;;;;;12.77;10.03;;;;;;;4.22;100.00;98092.22;5052805;28;20425;-71
2021/12/15 05:43:24;;;;;;;12.90;8.23;;;;;;;4.17;100.00;98097.41;5052558;28;20436;-72
2021/12/15 05:45:51;;;;;;;11.80;9.07;;;;;;;4.07;100.00;98104.06;5051052;28;20479;-72
2021/12/15 05:48:19;;;;;;;6.67;5.43;;;;;;;4.09;100.00;98099.38;5084487;28;20429;-72
2021/12/15 05:50:48;;;;;;;6.43;5.80;;;;;;;4.37;100.00;98110.75;5051072;28;20437;-72
2021/12/15 05:53:15;;;;;;;9.80;8.30;;;;;;;4.39;100.00;98078.03;5050851;28;20430;-71
2021/12/15 05:55:43;;;;;;;10.60;9.53;;;;;;;4.54;100.00;98108.91;5051506;28;20437;-72
2021/12/15 05:58:10;;;;;;;9.70;8.37;;;;;;;4.62;100.00;98108.47;5051070;28;20831;-71
2021/12/15 06:00:39;;;;;;;8.30;7.43;;;;;;;4.46;100.00;98098.84;5052182;28;20433;-72
2021/12/15 06:03:07;;;;;;;8.83;7.90;;;;;;;4.54;100.00;98101.03;5051088;28;20441;-72
2021/12/15 06:05:35;;;;;;;8.73;7.33;;;;;;;4.57;100.00;98099.75;5052392;28;20740;-72
2021/12/15 06:08:03;;;;;;;6.97;5.73;;;;;;;4.64;100.00;98109.00;5050750;28;20515;-72
2021/12/15 06:10:31;;;;;;;7.50;5.83;;;;;;;4.54;100.00;98113.31;5084097;28;20471;-72
2021/12/15 06:12:59;;;;;;;8.77;6.60;;;;;;;4.43;100.00;98112.41;5050788;28;20424;-71
2021/12/15 06:15:28;;;;;;;9.00;7.10;;;;;;;4.47;100.00;98110.88;5083956;28;20472;-72
2021/12/15 06:18:00;;;;;;;8.83;6.80;;;;;;;4.28;100.00;98096.50;5052253;28;20449;-72
2021/12/15 06:20:28;;;;;;;7.73;6.40;;;;;;;4.47;100.00;98110.09;5067242;28;20417;-72
2021/12/15 06:22:58;;;;;;;6.20;5.60;;;;;;;4.50;100.00;98107.78;5034003;28;20691;-72
2021/12/15 06:25:26;;;;;;;6.17;5.23;;;;;;;4.60;100.00;98122.84;5050515;28;20448;-72
2021/12/15 06:27:53;;;;;;;7.70;6.00;;;;;;;4.52;100.00;98125.88;5033847;28;20456;-72
2021/12/15 06:30:20;;;;;;;6.57;5.33;;;;;;;4.35;100.00;98105.75;5050499;28;20442;-71
2021/12/15 06:32:47;;;;;;;8.90;7.50;;;;;;;4.35;100.00;98112.81;5033938;28;20487;-72
2021/12/15 06:35:14;;;;;;;12.23;9.33;;;;;;;4.36;100.00;98132.72;5050440;28;20530;-72
2021/12/15 06:37:40;;;;;;;8.73;7.80;;;;;;;4.11;100.00;98113.00;5051797;28;20468;-72
2021/12/15 06:40:08;;;;;;;8.03;6.43;;;;;;;4.34;100.00;98142.66;5066915;28;21241;-72
2021/12/15 06:42:37;;;;;;;8.27;6.63;;;;;;;4.23;100.00;98140.91;5050147;28;20433;-72
2021/12/15 06:45:08;;;;;;;8.73;7.43;;;;;;;4.02;100.00;98130.16;5050938;28;20457;-72
2021/12/15 06:58:27;;;;;;;6.73;5.90;;;;;;;4.04;100.00;98167.34;5066842;28;20793;-72
2021/12/15 07:00:57;;;;;;;11.33;7.63;;;;;;;3.95;100.00;98152.28;5050101;28;20487;-72
2021/12/15 07:03:25;;;;;;;10.03;7.20;;;;;;;4.04;100.00;98172.59;5050880;28;20832;-72
2021/12/15 07:05:55;;;;;;;11.23;6.97;;;;;;;3.99;100.00;98169.88;5066760;28;20958;-73
2021/12/15 07:08:24;;;;;;;7.77;6.67;;;;;;;3.98;100.00;98178.75;5066834;28;20441;-72
2021/12/15 07:10:52;;;;;;;9.37;6.47;;;;;;;3.96;100.00;98183.44;5050052;28;20891;-72
2021/12/15 07:13:19;;;;;;;10.07;7.57;;;;;;;3.99;100.00;98179.56;5051249;28;20457;-72
2021/12/15 07:15:47;;;;;;;9.43;7.60;;;;;;;3.83;100.00;98154.97;5049860;28;21002;-72
2021/12/15 07:18:25;;;;;;;8.30;6.80;;;;;;;4.02;100.00;98187.75;5051213;28;20924;-72
2021/12/15 07:21:04;;;;;;;9.73;7.77;;;;;;;3.95;100.00;98170.59;5050294;28;20788;-72
2021/12/15 07:23:31;;;;;;;8.40;7.57;;;;;;;3.95;100.00;98173.22;5049910;28;20441;-72
2021/12/15 07:25:58;;;;;;;9.80;7.00;;;;;;;4.11;100.00;98191.53;5049735;28;20479;-72
2021/12/15 07:28:25;;;;;;;8.43;7.50;;;;;;;4.05;100.00;98176.00;5051070;28;20989;-72
2021/12/15 07:30:53;;;;;;;9.90;8.00;;;;;;;4.25;100.00;98192.00;5049686;28;20437;-73
2021/12/15 07:33:22;;;;;;;7.50;6.77;;;;;;;4.22;100.00;98189.88;5051034;28;20959;-72
2021/12/15 07:35:50;;;;;;;7.93;7.00;;;;;;;4.02;100.00;98179.91;5049431;28;20507;-72
2021/12/15 07:38:16;;;;;;;8.30;6.70;;;;;;;4.03;100.00;98186.72;5049502;28;20444;-72
2021/12/15 07:40:43;;;;;;;7.23;6.50;;;;;;;3.96;100.00;98172.19;5050999;28;20438;-72
2021/12/15 07:43:13;;;;;;;10.17;8.10;;;;;;;3.87;100.00;98163.91;5066469;28;20464;-72
2021/12/15 07:45:52;;;;;;;8.23;6.83;;;;;;;3.95;100.00;98194.94;5066409;28;20440;-72
2021/12/15 07:48:23;;;;;;;10.60;7.67;;;;;;;4.03;100.00;98193.78;5066487;28;20978;-72
2021/12/15 07:50:54;;;;;;;11.50;8.67;;;;;;;4.03;100.00;98201.63;5033278;28;20482;-72
2021/12/15 07:53:21;;;;;;;9.50;8.37;;;;;;;4.08;100.00;98220.00;5049863;28;20945;-73
2021/12/15 07:55:49;;;;;;;10.10;7.97;;;;;;;4.27;100.00;98213.50;5032782;28;20461;-72
2021/12/15 07:58:18;;;;;;;8.43;7.20;;;;;;;4.32;100.00;98216.22;5050737;28;20952;-72
2021/12/15 08:00:47;;;;;;;7.90;7.10;;;;;;;4.34;100.00;98215.97;5049389;28;20448;-72
2021/12/15 08:03:16;;;;;;;6.83;6.13;;;;;;;4.35;100.00;98217.56;5067331;28;20932;-72
2021/12/15 08:05:48;;;;;;;12.17;7.67;;;;;;;4.29;100.00;98218.53;5053049;28;20924;-72
2021/12/15 08:08:15;;;;;;;10.83;6.50;;;;;;;4.24;100.00;98223.66;5053173;28;20437;-72
2021/12/15 08:10:43;;;;;;;9.87;7.90;;;;;;;4.10;100.00;98202.25;5069896;28;20436;-73
2021/12/15 08:13:11;;;;;;;9.87;7.70;;;;;;;4.11;100.00;98224.78;5070057;28;20429;-72
2021/12/15 08:15:38;;;;;;;9.63;7.30;;;;;;;4.09;100.00;98222.41;5054863;28;20498;-72
2021/12/15 08:18:06;;;;;;;8.83;7.53;;;;;;;4.16;100.00;98217.00;5054447;28;20487;-72
2021/12/15 08:20:34;;;;;;;8.70;7.03;;;;;;;4.46;100.00;98229.78;5053468;28;20441;-73
2021/12/15 08:23:03;;;;;;;8.47;7.60;;;;;;;4.47;100.00;98230.56;5054490;28;20444;-72
2021/12/15 08:25:31;;;;;;;7.10;6.40;;;;;;;4.43;100.00;98222.41;5070036;28;20443;-72
2021/12/15 08:27:59;;;;;;;9.67;8.63;;;;;;;4.58;100.00;98227.88;5053135;28;20456;-72
2021/12/15 08:30:32;;;;;;;8.13;7.23;;;;;;;4.53;100.00;98235.63;5071044;28;20436;-72
2021/12/15 08:33:03;;;;;;;9.20;8.10;;;;;;;4.54;100.00;98232.00;5086273;28;20444;-71
2021/12/15 08:35:41;;;;;;;12.80;8.50;;;;;;;4.48;100.00;98225.09;5054033;28;20862;-72
2021/12/15 08:38:09;;;;;;;8.83;7.57;;;;;;;4.60;100.00;98215.31;5053872;28;20882;-72
2021/12/15 08:40:37;;;;;;;7.93;7.00;;;;;;;4.71;100.00;98224.91;5052583;28;20430;-73
2021/12/15 08:43:07;;;;;;;9.90;7.20;;;;;;;4.68;100.00;98219.38;5068931;28;20437;-72
2021/12/15 08:45:37;;;;;;;10.20;7.83;;;;;;;4.74;100.00;98223.63;5052600;28;20425;-72
2021/12/15 08:48:04;;;;;;;10.80;7.70;;;;;;;4.76;100.00;98234.66;5053625;28;20484;-73
2021/12/15 08:50:34;;;;;;;15.00;11.60;;;;;;;4.82;100.00;98231.09;5085846;28;20517;-72
2021/12/15 08:53:02;;;;;;;13.90;8.60;;;;;;;4.93;100.00;98232.00;5035962;28;20445;-72
2021/12/15 08:55:29;;;;;;;13.60;10.43;;;;;;;4.75;100.00;98201.63;5052232;28;20469;-72
2021/12/15 08:57:59;;;;;;;9.13;8.10;;;;;;;4.99;100.00;98231.03;5053530;28;20453;-72
2021/12/15 09:00:26;;;;;;;8.20;6.47;;;;;;;4.98;100.00;98232.88;5052218;28;20449;-72
2021/12/15 09:02:57;;;;;;;7.90;7.00;;;;;;;4.98;100.00;98226.84;5035641;28;21022;-73
2021/12/15 09:05:25;;;;;;;8.90;7.47;;;;;;;5.00;100.00;98222.94;5053407;28;20409;-72
2021/12/15 09:07:55;;;;;;;8.00;7.20;;;;;;;4.99;100.00;98238.91;5068657;28;21015;-72
2021/12/15 09:10:25;;;;;;;7.87;6.97;;;;;;;4.97;100.00;98217.38;5052002;28;20479;-72
2021/12/15 09:12:52;;;;;;;8.20;7.20;;;;;;;5.05;100.00;98230.84;5052138;28;20446;-72
2021/12/15 09:15:19;;;;;;;7.20;6.27;;;;;;;4.98;100.00;98205.88;5051306;28;20460;-72
2021/12/15 09:17:46;;;;;;;7.00;6.30;;;;;;;5.16;100.00;98223.91;5051733;28;20453;-72
2021/12/15 09:20:18;;;;;;;6.60;5.97;;;;;;;5.19;100.00;98231.28;5051914;28;20787;-72
2021/12/15 09:22:46;;;;;;;8.17;6.40;;;;;;;5.22;100.00;98230.03;5051873;28;20417;-72
2021/12/15 09:25:14;;;;;;;7.30;6.63;;;;;;;5.32;100.00;98227.50;5085245;28;20784;-72
2021/12/15 09:27:43;;;;;;;8.97;6.47;;;;;;;5.12;100.00;98214.16;5051748;28;20504;-72
2021/12/15 09:30:15;;;;;;;8.30;7.60;;;;;;;5.22;100.00;98227.41;5035681;28;20437;-72
2021/12/15 09:32:42;;;;;;;7.30;6.50;;;;;;;5.21;100.00;98223.19;5052037;28;20429;-72
2021/12/15 09:35:10;;;;;;;7.60;6.80;;;;;;;5.01;100.00;98211.41;5068355;28;20461;-73
2021/12/15 09:37:42;;;;;;;9.30;6.27;;;;;;;4.98;100.00;98201.41;5053173;28;20972;-73
2021/12/15 09:40:11;;;;;;;7.60;6.90;;;;;;;5.03;100.00;98222.44;5053842;28;20892;-72
2021/12/15 09:42:39;;;;;;;4.90;4.40;;;;;;;5.26;100.00;98224.03;5051993;28;20445;-71
2021/12/15 10:12:30;;;;;;;6.53;6.00;;;;;;;5.26;100.00;98218.78;5051225;28;20449;-72
2021/12/15 10:18:25;;;;;;;7.13;6.43;;;;;;;5.40;100.00;98234.94;5067511;28;20508;-72
2021/12/15 10:20:52;;;;;;;7.70;6.90;;;;;;;5.24;100.00;98209.59;5052174;28;20429;-72
2021/12/15 10:23:33;;;;;;;7.20;6.50;;;;;;;5.37;100.00;98219.72;5050528;28;20445;-72
2021/12/15 10:26:00;;;;;;;14.80;9.90;;;;;;;5.40;100.00;98206.09;5051443;28;20425;-72
2021/12/15 10:28:30;;;;;;;10.03;8.10;;;;;;;5.24;100.00;98196.47;5050182;28;20444;-72
2021/12/15 10:31:04;;;;;;;8.30;7.40;;;;;;;5.46;100.00;98204.31;5050372;28;20437;-72
2021/12/15 10:33:36;;;;;;;6.53;5.80;;;;;;;5.38;100.00;98202.94;5051676;28;20421;-72
2021/12/15 10:36:10;;;;;;;8.37;6.73;;;;;;;5.54;100.00;98204.66;5050228;28;20468;-72
2021/12/15 10:38:47;;;;;;;9.40;8.17;;;;;;;5.61;100.00;98214.97;5051622;28;20471;-72
2021/12/15 10:41:17;;;;;;;8.03;7.07;;;;;;;5.59;100.00;98206.53;5050357;28;20425;-72
2021/12/15 10:43:47;;;;;;;8.40;7.50;;;;;;;5.51;100.00;98192.06;5050198;28;20490;-72
2021/12/15 10:46:15;;;;;;;9.67;7.80;;;;;;;5.46;100.00;98184.13;5051450;28;20575;-72
2021/12/15 10:48:50;;;;;;;17.73;14.80;;;;;;;5.55;100.00;98200.22;5051406;28;20953;-72
2021/12/15 10:51:35;;;;;;;12.47;11.20;;;;;;;5.58;100.00;98200.50;5051473;28;20457;-72
2021/12/15 10:54:34;;;;;;;10.80;8.27;;;;;;;5.72;100.00;98210.59;5050158;28;20925;-72
2021/12/15 10:57:11;;;;;;;11.27;10.30;;;;;;;5.57;100.00;98193.69;5049920;28;21009;-72
2021/12/15 10:59:41;;;;;;;24.63;20.83;;;;;;;5.69;100.00;98204.03;5049957;28;20445;-72
2021/12/15 11:02:32;;;;;;;8.93;7.97;;;;;;;5.72;100.00;98200.09;5050324;28;20429;-72
2021/12/15 11:05:06;;;;;;;21.53;16.20;;;;;;;5.58;100.00;98179.50;5050002;28;20480;-71
2021/12/15 11:07:36;;;;;;;26.63;18.87;;;;;;;5.70;100.00;98192.50;5050144;28;20514;-72
2021/12/15 11:10:06;;;;;;;11.37;8.17;;;;;;;5.68;100.00;98199.81;5050028;28;20421;-72
2021/12/15 11:12:59;;;;;;;9.00;6.90;;;;;;;5.65;100.00;98192.44;5051889;28;20424;-73
2021/12/15 11:15:31;;;;;;;9.00;7.03;;;;;;;5.69;100.00;98196.16;5049078;28;20527;-72
2021/12/15 11:18:05;;;;;;;8.67;7.83;;;;;;;5.54;100.00;98162.69;5033558;28;20548;-72
2021/12/15 11:20:45;;;;;;;11.33;10.23;;;;;;;5.74;100.00;98182.28;5050360;28;20483;-73
2021/12/15 11:23:18;;;;;;;11.57;10.40;;;;;;;5.75;100.00;98184.69;5049712;28;20429;-72
2021/12/15 11:25:59;;;;;;;13.40;8.77;;;;;;;5.76;100.00;98194.13;5049680;28;20478;-73
2021/12/15 11:28:28;;;;;;;9.40;7.07;;;;;;;5.85;100.00;98187.38;5051098;28;20475;-73
2021/12/15 11:31:08;;;;;;;8.43;7.20;;;;;;;5.53;100.00;98153.25;5033006;28;20971;-73
2021/12/15 11:33:39;;;;;;;9.87;7.77;;;;;;;5.68;100.00;98183.28;5051082;28;20417;-73
2021/12/15 11:36:11;;;;;;;7.83;7.03;;;;;;;5.75;100.00;98197.81;5050667;28;20560;-73
2021/12/15 11:38:50;;;;;;;8.60;7.70;;;;;;;5.69;100.00;98193.53;5052782;28;20409;-73
2021/12/15 11:41:25;;;;;;;9.07;6.83;;;;;;;5.76;100.00;98193.34;5053757;28;20477;-73
2021/12/15 11:44:19;;;;;;;9.63;7.10;;;;;;;5.77;100.00;98192.31;5053543;28;20433;-73
2021/12/15 11:46:57;;;;;;;9.33;8.30;;;;;;;5.67;100.00;98195.63;5068704;28;20472;-73
2021/12/15 11:49:29;;;;;;;8.73;6.87;;;;;;;5.57;100.00;98192.88;5053549;28;20490;-73
2021/12/15 11:52:08;;;;;;;8.60;7.80;;;;;;;5.48;100.00;98182.06;5054942;28;20421;-73
2021/12/15 11:54:44;;;;;;;8.80;6.83;;;;;;;5.62;100.00;98185.09;5069914;28;20459;-73
2021/12/15 11:57:24;;;;;;;9.23;7.60;;;;;;;5.73;100.00;98191.19;5053475;28;20465;-73
2021/12/15 12:00:05;;;;;;;8.60;7.70;;;;;;;5.84;100.00;98188.41;5053262;28;20490;-74
2021/12/15 12:02:39;;;;;;;8.07;7.27;;;;;;;5.66;100.00;98173.03;5054522;28;20410;-73
2021/12/15 12:05:33;;;;;;;9.60;8.57;;;;;;;5.81;100.00;98173.19;5053312;28;20433;-73
2021/12/15 12:08:07;;;;;;;11.53;7.50;;;;;;;5.67;100.00;98181.69;5051584;28;20469;-74
2021/12/15 12:10:48;;;;;;;10.83;7.63;;;;;;;5.59;100.00;98169.81;5054495;28;20833;-73
2021/12/15 12:13:23;;;;;;;6.53;5.80;;;;;;;5.79;100.00;98174.47;5069804;28;20550;-73
2021/12/15 12:15:53;;;;;;;6.60;5.50;;;;;;;5.82;100.00;98171.34;5052793;28;20920;-73
2021/12/15 12:18:23;;;;;;;7.57;5.30;;;;;;;5.74;100.00;98169.94;5053283;28;20962;-73
2021/12/15 12:20:54;;;;;;;6.23;5.63;;;;;;;5.67;100.00;98176.47;5052815;28;21007;-73
2021/12/15 12:23:23;;;;;;;9.17;6.53;;;;;;;5.71;100.00;98174.91;5053026;28;20518;-73
2021/12/15 12:25:53;;;;;;;10.00;5.90;;;;;;;5.81;100.00;98167.94;5069323;28;20448;-72
2021/12/15 12:28:27;;;;;;;5.30;4.80;;;;;;;5.82;100.00;98174.75;5052721;28;20448;-72
2021/12/15 12:31:01;;;;;;;4.40;4.00;;;;;;;5.81;100.00;98173.19;5052893;28;20413;-73
2021/12/15 12:33:29;;;;;;;7.83;6.07;;;;;;;5.89;100.00;98172.72;5052805;28;20425;-73
2021/12/15 12:36:06;;;;;;;5.60;5.10;;;;;;;5.92;100.00;98167.00;5036005;28;20583;-73
2021/12/15 12:38:37;;;;;;;6.30;5.73;;;;;;;5.80;100.00;98163.72;5052790;28;20429;-73
2021/12/15 12:41:14;;;;;;;5.73;4.90;;;;;;;6.01;100.00;98177.84;5053844;28;20467;-73
2021/12/15 12:43:53;;;;;;;5.33;4.87;;;;;;;5.93;100.00;98150.22;5069252;28;20444;-73
2021/12/15 12:46:29;;;;;;;5.97;4.73;;;;;;;6.03;100.00;98174.97;5052338;28;20511;-73
2021/12/15 12:59:21;;;;;;;3.80;3.40;;;;;;;6.04;100.00;98176.56;5034044;28;20464;-73
2021/12/15 13:00:53;;;;;;;4.60;4.20;;;;;;;6.07;100.00;98168.97;5051565;28;20476;-73
2021/12/15 13:03:38;;;;;;;6.70;4.33;;;;;;;5.68;100.00;98149.97;5052222;28;20431;-73
2021/12/15 13:06:13;;;;;;;4.23;3.83;;;;;;;5.78;100.00;98168.44;5051970;28;20492;-73
2021/12/15 13:08:49;;;;;;;4.03;3.63;;;;;;;5.79;100.00;98174.47;5053377;28;20428;-73
2021/12/15 13:11:33;;;;;;;5.33;4.50;;;;;;;5.74;100.00;98166.53;5052347;28;20418;-73
2021/12/15 13:14:09;;;;;;;3.60;3.20;;;;;;;5.63;100.00;98166.47;5052890;28;20432;-73
2021/12/15 13:16:41;;;;;;;4.37;3.47;;;;;;;5.62;100.00;98175.38;5055102;28;20507;-73
2021/12/15 13:19:17;;;;;;;3.80;3.13;;;;;;;5.59;100.00;98165.34;5052177;28;20763;-73